createdAt,value
2019-04-16T00:00:11.822Z,49.22
2019-04-16T00:01:08.225Z,49.01
2019-04-16T00:02:08.216Z,49.32
2019-04-16T00:03:08.203Z,49.22
2019-04-16T00:04:08.192Z,48.91
2019-04-16T00:05:08.203Z,49.32
2019-04-16T00:06:08.171Z,49.22
2019-04-16T00:07:08.203Z,49.11
2019-04-16T00:08:19.315Z,49.22
2019-04-16T00:09:09.145Z,48.60
2019-04-16T00:10:08.151Z,48.50
2019-04-16T00:11:08.153Z,49.42
2019-04-16T00:12:08.122Z,49.32
2019-04-16T00:13:08.101Z,49.14
2019-04-16T00:14:08.103Z,49.04
2019-04-16T00:15:08.098Z,49.04
2019-04-16T00:16:12.722Z,49.14
2019-04-16T00:17:09.044Z,49.65
2019-04-16T00:18:08.034Z,49.44
2019-04-16T00:19:08.033Z,49.24
2019-04-16T00:20:08.013Z,49.14
2019-04-16T00:21:10.047Z,49.04
2019-04-16T00:22:11.535Z,49.44
2019-04-16T00:23:07.981Z,49.14
2019-04-16T00:24:07.965Z,49.04
2019-04-16T00:25:07.994Z,49.34
2019-04-16T00:26:07.990Z,48.91
2019-04-16T00:27:07.936Z,48.73
2019-04-16T00:28:07.922Z,48.83
2019-04-16T00:29:07.952Z,49.14
2019-04-16T00:30:07.904Z,49.44
2019-04-16T00:31:07.915Z,49.34
2019-04-16T00:32:09.630Z,48.63
2019-04-16T00:33:10.666Z,49.24
2019-04-16T00:34:07.855Z,49.24
2019-04-16T00:35:07.907Z,49.14
2019-04-16T00:36:07.830Z,49.55
2019-04-16T00:37:07.855Z,48.85
2019-04-16T00:38:07.817Z,49.14
2019-04-16T00:39:07.817Z,49.06
2019-04-16T00:40:07.817Z,49.57
2019-04-16T00:41:07.773Z,49.06
2019-04-16T00:42:07.921Z,49.06
2019-04-16T00:43:07.889Z,48.96
2019-04-16T00:44:07.970Z,48.93
2019-04-16T00:45:07.998Z,48.96
2019-04-16T00:46:08.231Z,49.34
2019-04-16T00:47:07.747Z,48.96
2019-04-16T00:48:07.696Z,48.85
2019-04-16T00:49:07.686Z,49.16
2019-04-16T00:50:07.675Z,48.96
2019-04-16T00:51:07.730Z,49.26
2019-04-16T00:52:07.680Z,48.96
2019-04-16T00:53:08.898Z,49.26
2019-04-16T00:54:10.336Z,49.14
2019-04-16T00:55:07.627Z,49.26
2019-04-16T00:56:07.621Z,49.37
2019-04-16T00:57:07.602Z,49.26
2019-04-16T00:58:07.651Z,49.26
2019-04-16T00:59:07.577Z,49.26
2019-04-16T01:00:07.559Z,49.26
2019-04-16T01:01:07.556Z,49.16
2019-04-16T01:02:07.588Z,49.47
2019-04-16T01:03:07.531Z,49.16
2019-04-16T01:04:07.526Z,49.06
2019-04-16T01:05:07.507Z,49.69
2019-04-16T01:06:08.402Z,49.80
2019-04-16T01:07:07.515Z,50.01
2019-04-16T01:08:07.470Z,49.69
2019-04-16T01:09:07.456Z,49.57
2019-04-16T01:10:07.454Z,49.90
2019-04-16T01:11:07.436Z,49.77
2019-04-16T01:12:07.447Z,49.47
2019-04-16T01:13:07.614Z,49.80
2019-04-16T01:14:07.404Z,49.69
2019-04-16T01:15:07.394Z,49.49
2019-04-16T01:16:07.440Z,49.57
2019-04-16T01:17:07.367Z,49.59
2019-04-16T01:18:08.885Z,49.59
2019-04-16T01:19:09.975Z,49.59
2019-04-16T01:20:11.607Z,49.59
2019-04-16T01:21:08.324Z,49.49
2019-04-16T01:22:07.315Z,49.47
2019-04-16T01:23:07.331Z,49.49
2019-04-16T01:24:07.289Z,49.37
2019-04-16T01:25:07.285Z,49.59
2019-04-16T01:26:07.277Z,49.49
2019-04-16T01:27:07.261Z,49.49
2019-04-16T01:28:07.276Z,49.39
2019-04-16T01:29:07.234Z,49.80
2019-04-16T01:30:07.246Z,49.39
2019-04-16T01:31:08.308Z,49.72
2019-04-16T01:32:10.287Z,49.69
2019-04-16T01:33:07.214Z,49.69
2019-04-16T01:34:07.181Z,49.90
2019-04-16T01:35:07.804Z,49.93
2019-04-16T01:36:07.161Z,49.49
2019-04-16T01:37:07.152Z,49.82
2019-04-16T01:38:07.169Z,49.62
2019-04-16T01:39:15.593Z,49.62
2019-04-16T01:40:08.109Z,49.51
2019-04-16T01:41:07.131Z,49.62
2019-04-16T01:42:07.085Z,49.90
2019-04-16T01:43:07.100Z,50.02
2019-04-16T01:44:07.099Z,49.59
2019-04-16T01:45:07.055Z,50.01
2019-04-16T01:46:07.068Z,49.59
2019-04-16T01:47:07.038Z,49.82
2019-04-16T01:48:08.194Z,49.72
2019-04-16T01:49:09.706Z,49.62
2019-04-16T01:50:06.997Z,49.62
2019-04-16T01:51:06.996Z,49.93
2019-04-16T01:52:06.978Z,50.13
2019-04-16T01:53:06.997Z,50.13
2019-04-16T01:54:06.982Z,49.95
2019-04-16T01:55:06.945Z,50.02
2019-04-16T01:56:06.940Z,50.13
2019-04-16T01:57:06.918Z,50.02
2019-04-16T01:58:06.915Z,49.41
2019-04-16T01:59:06.923Z,50.13
2019-04-16T02:00:08.418Z,50.15
2019-04-16T02:01:08.149Z,49.85
2019-04-16T02:02:06.861Z,50.15
2019-04-16T02:03:06.858Z,50.36
2019-04-16T02:04:06.869Z,49.64
2019-04-16T02:05:06.833Z,50.56
2019-04-16T02:06:06.823Z,50.46
2019-04-16T02:07:06.806Z,51.31
2019-04-16T02:08:06.795Z,50.46
2019-04-16T02:09:06.846Z,50.38
2019-04-16T02:10:07.995Z,50.87
2019-04-16T02:11:09.837Z,49.97
2019-04-16T02:12:06.753Z,49.87
2019-04-16T02:13:06.791Z,50.18
2019-04-16T02:14:06.879Z,50.07
2019-04-16T02:15:06.822Z,49.95
2019-04-16T02:16:06.735Z,50.48
2019-04-16T02:17:06.692Z,50.56
2019-04-16T02:18:06.684Z,50.99
2019-04-16T02:19:06.697Z,50.48
2019-04-16T02:20:07.422Z,51.10
2019-04-16T02:21:09.558Z,50.18
2019-04-16T02:22:06.644Z,50.90
2019-04-16T02:23:06.626Z,50.59
2019-04-16T02:24:06.674Z,50.79
2019-04-16T02:25:06.612Z,50.28
2019-04-16T02:26:06.596Z,50.38
2019-04-16T02:27:06.582Z,50.92
2019-04-16T02:28:06.571Z,50.10
2019-04-16T02:29:06.585Z,50.79
2019-04-16T02:30:06.733Z,50.61
2019-04-16T02:31:12.841Z,50.51
2019-04-16T02:32:07.578Z,50.20
2019-04-16T02:33:06.538Z,50.18
2019-04-16T02:34:06.642Z,50.40
2019-04-16T02:35:06.623Z,50.92
2019-04-16T02:36:06.658Z,51.12
2019-04-16T02:37:06.650Z,51.23
2019-04-16T02:38:10.377Z,50.48
2019-04-16T02:39:07.503Z,50.20
2019-04-16T02:40:06.773Z,51.23
2019-04-16T02:41:06.427Z,50.51
2019-04-16T02:42:06.419Z,50.28
2019-04-16T02:43:07.675Z,50.40
2019-04-16T02:44:06.391Z,50.51
2019-04-16T02:45:06.408Z,50.28
2019-04-16T02:46:06.379Z,50.51
2019-04-16T02:47:07.811Z,50.51
2019-04-16T02:48:06.346Z,50.61
2019-04-16T02:49:06.344Z,50.82
2019-04-16T02:50:06.348Z,50.71
2019-04-16T02:51:08.237Z,50.61
2019-04-16T02:52:06.308Z,50.61
2019-04-16T02:53:06.293Z,50.40
2019-04-16T02:54:06.285Z,50.82
2019-04-16T02:55:09.146Z,50.51
2019-04-16T02:56:06.266Z,50.82
2019-04-16T02:57:06.547Z,50.82
2019-04-16T02:58:06.236Z,50.32
2019-04-16T02:59:12.201Z,50.32
2019-04-16T03:00:07.236Z,50.40
2019-04-16T03:01:06.410Z,50.43
2019-04-16T03:02:06.195Z,50.71
2019-04-16T03:03:06.184Z,50.40
2019-04-16T03:04:06.174Z,50.51
2019-04-16T03:05:06.187Z,50.51
2019-04-16T03:06:06.148Z,51.04
2019-04-16T03:07:06.173Z,50.43
2019-04-16T03:08:06.296Z,50.24
2019-04-16T03:09:09.133Z,49.91
2019-04-16T03:10:06.133Z,50.53
2019-04-16T03:11:06.115Z,49.81
2019-04-16T03:12:06.078Z,50.22
2019-04-16T03:13:06.068Z,51.35
2019-04-16T03:14:06.162Z,50.43
2019-04-16T03:15:06.046Z,51.35
2019-04-16T03:16:07.516Z,51.66
2019-04-16T03:17:09.654Z,51.17
2019-04-16T03:18:06.011Z,51.35
2019-04-16T03:19:06.003Z,50.22
2019-04-16T03:20:06.014Z,50.32
2019-04-16T03:21:06.170Z,50.32
2019-04-16T03:22:05.974Z,50.22
2019-04-16T03:23:06.795Z,50.43
2019-04-16T03:24:09.325Z,50.53
2019-04-16T03:25:05.934Z,50.94
2019-04-16T03:26:05.951Z,50.22
2019-04-16T03:27:05.954Z,50.32
2019-04-16T03:28:05.907Z,50.02
2019-04-16T03:29:05.887Z,51.25
2019-04-16T03:30:06.354Z,51.25
2019-04-16T03:31:08.749Z,51.07
2019-04-16T03:32:06.174Z,51.48
2019-04-16T03:33:12.338Z,50.22
2019-04-16T03:34:06.854Z,50.02
2019-04-16T03:35:05.821Z,51.15
2019-04-16T03:36:05.836Z,50.43
2019-04-16T03:37:05.831Z,50.22
2019-04-16T03:38:06.265Z,50.84
2019-04-16T03:39:05.775Z,51.25
2019-04-16T03:40:16.093Z,50.32
2019-04-16T03:41:06.788Z,50.74
2019-04-16T03:42:05.745Z,51.04
2019-04-16T03:43:05.771Z,50.12
2019-04-16T03:44:05.723Z,50.02
2019-04-16T03:45:09.177Z,49.81
2019-04-16T03:46:05.789Z,50.32
2019-04-16T03:47:05.897Z,50.53
2019-04-16T03:48:05.677Z,50.22
2019-04-16T03:49:05.674Z,50.22
2019-04-16T03:50:05.658Z,50.53
2019-04-16T03:51:05.649Z,50.53
2019-04-16T03:52:08.773Z,50.02
2019-04-16T03:53:05.620Z,50.22
2019-04-16T03:54:05.933Z,50.43
2019-04-16T03:55:05.778Z,51.15
2019-04-16T03:56:05.622Z,50.22
2019-04-16T03:57:05.574Z,50.63
2019-04-16T03:58:07.136Z,50.86
2019-04-16T03:59:10.786Z,51.35
2019-04-16T04:00:11.088Z,51.25
2019-04-16T04:01:06.553Z,51.45
2019-04-16T04:02:05.523Z,51.37
2019-04-16T04:03:05.510Z,51.37
2019-04-16T04:04:05.496Z,51.58
2019-04-16T04:05:06.807Z,51.89
2019-04-16T04:06:07.011Z,51.79
2019-04-16T04:07:05.605Z,51.79
2019-04-16T04:08:05.602Z,51.99
2019-04-16T04:09:05.558Z,52.43
2019-04-16T04:10:05.434Z,51.89
2019-04-16T04:11:09.067Z,51.79
2019-04-16T04:12:06.412Z,51.89
2019-04-16T04:13:05.789Z,51.71
2019-04-16T04:14:05.393Z,52.22
2019-04-16T04:15:05.373Z,51.92
2019-04-16T04:16:05.364Z,52.12
2019-04-16T04:17:06.965Z,52.01
2019-04-16T04:18:07.924Z,52.53
2019-04-16T04:19:06.341Z,52.53
2019-04-16T04:20:05.325Z,52.53
2019-04-16T04:21:05.320Z,52.53
2019-04-16T04:22:05.319Z,52.40
2019-04-16T04:23:05.309Z,52.53
2019-04-16T04:24:05.279Z,52.33
2019-04-16T04:25:05.281Z,52.22
2019-04-16T04:26:05.532Z,52.33
2019-04-16T04:27:05.278Z,52.12
2019-04-16T04:28:05.258Z,52.35
2019-04-16T04:29:06.258Z,52.22
2019-04-16T04:30:05.210Z,52.56
2019-04-16T04:31:05.200Z,52.84
2019-04-16T04:32:05.234Z,52.66
2019-04-16T04:33:08.919Z,53.28
2019-04-16T04:34:05.178Z,52.45
2019-04-16T04:35:05.161Z,53.50
2019-04-16T04:36:05.158Z,53.69
2019-04-16T04:37:05.170Z,53.38
2019-04-16T04:38:05.122Z,53.58
2019-04-16T04:39:08.998Z,53.69
2019-04-16T04:40:06.098Z,52.97
2019-04-16T04:41:05.091Z,53.38
2019-04-16T04:42:05.127Z,54.00
2019-04-16T04:43:05.068Z,54.13
2019-04-16T04:44:05.357Z,53.58
2019-04-16T04:45:08.348Z,54.22
2019-04-16T04:46:05.028Z,53.92
2019-04-16T04:47:05.062Z,54.13
2019-04-16T04:48:05.025Z,54.22
2019-04-16T04:49:04.997Z,53.41
2019-04-16T04:50:04.999Z,54.13
2019-04-16T04:51:08.009Z,54.22
2019-04-16T04:52:05.007Z,53.92
2019-04-16T04:53:04.954Z,53.81
2019-04-16T04:54:04.950Z,54.02
2019-04-16T04:55:04.930Z,54.22
2019-04-16T04:56:04.930Z,54.02
2019-04-16T04:57:04.922Z,54.33
2019-04-16T04:58:04.942Z,54.22
2019-04-16T04:59:05.315Z,54.22
2019-04-16T05:00:05.658Z,54.33
2019-04-16T05:01:04.920Z,54.13
2019-04-16T05:02:04.865Z,54.13
2019-04-16T05:03:04.900Z,54.22
2019-04-16T05:04:04.855Z,54.02
2019-04-16T05:05:04.817Z,54.43
2019-04-16T05:06:04.807Z,54.33
2019-04-16T05:07:05.018Z,54.13
2019-04-16T05:08:04.828Z,53.71
2019-04-16T05:09:04.773Z,53.81
2019-04-16T05:10:07.451Z,53.89
2019-04-16T05:11:04.749Z,54.53
2019-04-16T05:12:07.829Z,54.53
2019-04-16T05:13:04.777Z,54.64
2019-04-16T05:14:04.735Z,54.74
2019-04-16T05:15:04.708Z,54.22
2019-04-16T05:16:07.043Z,54.33
2019-04-16T05:17:06.513Z,54.33
2019-04-16T05:18:05.904Z,53.71
2019-04-16T05:19:04.715Z,54.53
2019-04-16T05:20:04.667Z,54.64
2019-04-16T05:21:04.642Z,54.02
2019-04-16T05:22:04.627Z,55.46
2019-04-16T05:23:04.627Z,53.92
2019-04-16T05:24:04.629Z,54.64
2019-04-16T05:25:04.597Z,54.22
2019-04-16T05:26:05.331Z,54.22
2019-04-16T05:27:05.528Z,55.98
2019-04-16T05:28:04.569Z,57.52
2019-04-16T05:29:04.581Z,54.61
2019-04-16T05:30:04.575Z,54.22
2019-04-16T05:31:04.527Z,54.13
2019-04-16T05:32:04.527Z,54.22
2019-04-16T05:33:05.572Z,54.22
2019-04-16T05:34:06.075Z,54.33
2019-04-16T05:35:09.175Z,54.22
2019-04-16T05:36:05.476Z,54.22
2019-04-16T05:37:04.459Z,54.64
2019-04-16T05:38:04.451Z,54.43
2019-04-16T05:39:04.461Z,54.53
2019-04-16T05:40:04.431Z,54.22
2019-04-16T05:41:13.204Z,53.92
2019-04-16T05:42:05.404Z,54.51
2019-04-16T05:43:04.392Z,54.33
2019-04-16T05:44:04.402Z,54.43
2019-04-16T05:45:05.482Z,54.61
2019-04-16T05:46:05.462Z,54.43
2019-04-16T05:47:04.355Z,54.22
2019-04-16T05:48:04.336Z,54.13
2019-04-16T05:49:04.350Z,54.33
2019-04-16T05:50:04.312Z,53.92
2019-04-16T05:51:04.299Z,54.02
2019-04-16T05:52:04.294Z,54.41
2019-04-16T05:53:05.444Z,54.00
2019-04-16T05:54:04.316Z,54.30
2019-04-16T05:55:04.265Z,54.10
2019-04-16T05:56:04.266Z,54.30
2019-04-16T05:57:04.235Z,53.69
2019-04-16T05:58:04.219Z,53.28
2019-04-16T05:59:04.242Z,53.81
2019-04-16T06:00:09.286Z,53.17
2019-04-16T06:01:05.204Z,53.50
2019-04-16T06:02:04.178Z,53.17
2019-04-16T06:03:04.164Z,53.48
2019-04-16T06:04:04.155Z,53.48
2019-04-16T06:05:04.174Z,53.69
2019-04-16T06:06:04.130Z,53.48
2019-04-16T06:07:07.595Z,54.38
2019-04-16T06:08:06.300Z,53.05
2019-04-16T06:09:04.098Z,62.06
2019-04-16T06:10:06.810Z,52.48
2019-04-16T06:11:04.074Z,52.17
2019-04-16T06:12:05.894Z,52.09
2019-04-16T06:13:04.056Z,52.17
2019-04-16T06:14:04.081Z,52.61
2019-04-16T06:15:04.041Z,52.69
2019-04-16T06:16:04.052Z,52.30
2019-04-16T06:17:04.022Z,53.33
2019-04-16T06:18:05.364Z,53.12
2019-04-16T06:19:03.994Z,52.61
2019-04-16T06:20:04.101Z,52.20
2019-04-16T06:21:03.963Z,52.40
2019-04-16T06:22:03.984Z,52.30
2019-04-16T06:23:03.952Z,52.40
2019-04-16T06:24:04.249Z,52.38
2019-04-16T06:25:08.377Z,52.48
2019-04-16T06:26:04.943Z,52.30
2019-04-16T06:27:03.899Z,52.48
2019-04-16T06:28:03.883Z,52.17
2019-04-16T06:29:03.877Z,51.87
2019-04-16T06:30:03.861Z,51.68
2019-04-16T06:31:05.658Z,52.07
2019-04-16T06:32:03.883Z,51.97
2019-04-16T06:33:03.843Z,52.17
2019-04-16T06:34:03.816Z,51.87
2019-04-16T06:35:03.817Z,52.28
2019-04-16T06:36:03.956Z,52.69
2019-04-16T06:37:03.782Z,52.48
2019-04-16T06:38:03.801Z,52.69
2019-04-16T06:39:03.768Z,52.17
2019-04-16T06:40:03.770Z,51.97
2019-04-16T06:41:04.269Z,51.97
2019-04-16T06:42:03.743Z,51.87
2019-04-16T06:43:03.715Z,51.45
2019-04-16T06:44:04.196Z,51.56
2019-04-16T06:45:04.900Z,51.45
2019-04-16T06:46:05.469Z,51.84
2019-04-16T06:47:03.683Z,51.33
2019-04-16T06:48:03.660Z,52.04
2019-04-16T06:49:03.661Z,51.74
2019-04-16T06:50:03.658Z,51.74
2019-04-16T06:51:03.651Z,51.33
2019-04-16T06:52:03.641Z,51.74
2019-04-16T06:53:03.606Z,51.23
2019-04-16T06:54:03.605Z,51.10
2019-04-16T06:55:04.337Z,51.31
2019-04-16T06:56:05.603Z,53.85
2019-04-16T06:57:03.585Z,55.90
2019-04-16T06:58:03.552Z,55.13
2019-04-16T06:59:03.548Z,52.03
2019-04-16T07:00:07.000Z,51.31
2019-04-16T07:01:06.847Z,48.96
2019-04-16T07:02:03.568Z,48.85
2019-04-16T07:03:03.504Z,49.06
2019-04-16T07:04:06.601Z,49.16
2019-04-16T07:05:03.472Z,48.65
2019-04-16T07:06:03.975Z,48.77
2019-04-16T07:07:07.859Z,49.47
2019-04-16T07:08:03.444Z,49.18
2019-04-16T07:09:03.431Z,48.85
2019-04-16T07:10:03.419Z,49.49
2019-04-16T07:11:03.404Z,49.39
2019-04-16T07:12:03.396Z,49.69
2019-04-16T07:13:03.417Z,48.88
2019-04-16T07:14:03.370Z,49.57
2019-04-16T07:15:03.365Z,49.57
2019-04-16T07:16:03.353Z,48.75
2019-04-16T07:17:03.386Z,49.37
2019-04-16T07:18:05.488Z,48.44
2019-04-16T07:19:03.316Z,48.67
2019-04-16T07:20:04.757Z,48.75
2019-04-16T07:21:03.297Z,49.37
2019-04-16T07:22:03.291Z,49.37
2019-04-16T07:23:03.299Z,49.37
2019-04-16T07:24:03.318Z,49.37
2019-04-16T07:25:05.236Z,48.65
2019-04-16T07:26:04.295Z,48.44
2019-04-16T07:27:03.321Z,48.14
2019-04-16T07:28:03.346Z,47.93
2019-04-16T07:29:03.206Z,48.34
2019-04-16T07:30:06.933Z,48.55
2019-04-16T07:31:04.184Z,48.73
2019-04-16T07:32:03.259Z,48.22
2019-04-16T07:33:03.186Z,47.71
2019-04-16T07:34:03.149Z,47.40
2019-04-16T07:35:03.136Z,48.42
2019-04-16T07:36:03.147Z,47.58
2019-04-16T07:37:03.119Z,47.91
2019-04-16T07:38:05.596Z,47.68
2019-04-16T07:39:05.074Z,47.17
2019-04-16T07:40:08.309Z,46.76
2019-04-16T07:41:04.267Z,46.76
2019-04-16T07:42:10.312Z,47.66
2019-04-16T07:43:04.075Z,47.66
2019-04-16T07:44:07.853Z,47.66
2019-04-16T07:45:04.024Z,46.84
2019-04-16T07:46:03.022Z,46.84
2019-04-16T07:47:03.001Z,46.33
2019-04-16T07:48:06.073Z,46.21
2019-04-16T07:49:02.999Z,46.92
2019-04-16T07:50:02.971Z,46.72
2019-04-16T07:51:04.887Z,46.21
2019-04-16T07:52:06.987Z,47.00
2019-04-16T07:53:04.192Z,46.70
2019-04-16T07:54:03.277Z,46.49
2019-04-16T07:55:02.934Z,45.26
2019-04-16T07:56:02.901Z,45.06
2019-04-16T07:57:02.889Z,45.06
2019-04-16T07:58:02.878Z,44.85
2019-04-16T07:59:02.918Z,44.76
2019-04-16T08:00:08.049Z,45.57
2019-04-16T08:01:03.844Z,45.26
2019-04-16T08:02:02.832Z,45.37
2019-04-16T08:03:02.859Z,45.37
2019-04-16T08:04:03.253Z,45.14
2019-04-16T08:05:07.466Z,45.78
2019-04-16T08:06:03.780Z,45.37
2019-04-16T08:07:02.773Z,45.04
2019-04-16T08:08:02.902Z,45.45
2019-04-16T08:09:02.773Z,45.25
2019-04-16T08:10:03.312Z,44.71
2019-04-16T08:11:02.729Z,44.61
2019-04-16T08:12:02.739Z,45.12
2019-04-16T08:13:02.712Z,44.81
2019-04-16T08:14:02.805Z,44.71
2019-04-16T08:15:13.929Z,44.90
2019-04-16T08:16:04.311Z,43.98
2019-04-16T08:17:02.665Z,44.61
2019-04-16T08:18:02.807Z,44.49
2019-04-16T08:19:02.639Z,44.51
2019-04-16T08:20:02.686Z,50.08
2019-04-16T08:21:10.138Z,44.37
2019-04-16T08:22:03.701Z,44.34
2019-04-16T08:23:02.590Z,44.45
2019-04-16T08:24:02.629Z,43.94
2019-04-16T08:25:03.989Z,43.14
2019-04-16T08:26:04.722Z,42.94
2019-04-16T08:27:03.545Z,43.44
2019-04-16T08:28:02.537Z,43.44
2019-04-16T08:29:02.560Z,45.26
2019-04-16T08:30:04.041Z,44.78
2019-04-16T08:31:02.507Z,44.24
2019-04-16T08:32:02.494Z,44.24
2019-04-16T08:33:02.483Z,43.32
2019-04-16T08:34:02.478Z,43.81
2019-04-16T08:35:02.488Z,43.53
2019-04-16T08:36:02.466Z,43.71
2019-04-16T08:37:02.458Z,43.91
2019-04-16T08:38:02.426Z,43.61
2019-04-16T08:39:05.812Z,43.41
2019-04-16T08:40:02.402Z,43.20
2019-04-16T08:41:02.424Z,43.51
2019-04-16T08:42:02.377Z,43.08
2019-04-16T08:43:02.431Z,42.77
2019-04-16T08:44:03.796Z,43.38
2019-04-16T08:45:07.317Z,43.29
2019-04-16T08:46:03.333Z,43.08
2019-04-16T08:47:02.335Z,42.98
2019-04-16T08:48:02.338Z,48.56
2019-04-16T08:49:02.303Z,45.18
2019-04-16T08:50:02.325Z,42.61
2019-04-16T08:51:04.661Z,42.02
2019-04-16T08:52:02.283Z,43.23
2019-04-16T08:53:02.265Z,42.61
2019-04-16T08:54:02.254Z,42.33
2019-04-16T08:55:02.239Z,42.33
2019-04-16T08:56:02.250Z,42.31
2019-04-16T08:57:02.218Z,42.31
2019-04-16T08:58:06.035Z,43.55
2019-04-16T08:59:02.194Z,42.92
2019-04-16T09:00:02.433Z,43.53
2019-04-16T09:01:02.171Z,43.12
2019-04-16T09:02:02.158Z,42.92
2019-04-16T09:03:02.144Z,43.43
2019-04-16T09:04:03.090Z,43.02
2019-04-16T09:05:05.905Z,42.82
2019-04-16T09:06:04.459Z,43.20
2019-04-16T09:07:11.379Z,43.02
2019-04-16T09:08:12.261Z,43.10
2019-04-16T09:09:12.490Z,42.29
2019-04-16T09:10:16.273Z,42.39
2019-04-16T09:11:04.349Z,48.80
2019-04-16T09:12:02.075Z,48.85
2019-04-16T09:13:04.709Z,43.37
2019-04-16T09:14:02.021Z,41.84
2019-04-16T09:15:02.266Z,41.54
2019-04-16T09:16:02.160Z,41.76
2019-04-16T09:17:01.985Z,46.13
2019-04-16T09:18:01.977Z,51.77
2019-04-16T09:19:01.968Z,45.74
2019-04-16T09:20:05.600Z,44.20
2019-04-16T09:21:01.966Z,47.60
2019-04-16T09:22:01.935Z,42.61
2019-04-16T09:23:01.921Z,41.71
2019-04-16T09:24:08.288Z,42.19
2019-04-16T09:25:02.895Z,42.80
2019-04-16T09:26:13.015Z,40.05
2019-04-16T09:27:02.881Z,40.86
2019-04-16T09:28:02.395Z,40.13
2019-04-16T09:29:08.186Z,38.93
2019-04-16T09:30:02.836Z,41.97
2019-04-16T09:31:01.992Z,40.03
2019-04-16T09:32:01.826Z,42.76
2019-04-16T09:33:02.420Z,40.25
2019-04-16T09:34:05.294Z,38.93
2019-04-16T09:35:08.912Z,39.54
2019-04-16T09:36:02.799Z,37.74
2019-04-16T09:37:01.767Z,37.64
2019-04-16T09:38:01.747Z,37.54
2019-04-16T09:39:01.737Z,38.89
2019-04-16T09:40:15.619Z,44.26
2019-04-16T09:41:02.734Z,40.89
2019-04-16T09:42:01.734Z,40.37
2019-04-16T09:43:01.707Z,38.65
2019-04-16T09:44:01.678Z,38.04
2019-04-16T09:45:04.815Z,38.37
2019-04-16T09:46:10.131Z,38.68
2019-04-16T09:47:05.179Z,39.82
2019-04-16T09:48:03.702Z,38.91
2019-04-16T09:49:04.933Z,39.11
2019-04-16T09:50:01.622Z,39.94
2019-04-16T09:51:01.605Z,39.51
2019-04-16T09:52:03.939Z,38.82
2019-04-16T09:53:02.067Z,40.22
2019-04-16T09:54:01.566Z,39.13
2019-04-16T09:55:01.556Z,38.99
2019-04-16T09:56:01.546Z,39.01
2019-04-16T09:57:01.560Z,39.01
2019-04-16T09:58:06.083Z,39.72
2019-04-16T09:59:02.509Z,40.63
2019-04-16T10:00:01.501Z,39.60
2019-04-16T10:01:01.490Z,39.51
2019-04-16T10:02:01.510Z,38.81
2019-04-16T10:03:01.471Z,38.68
2019-04-16T10:04:01.480Z,38.68
2019-04-16T10:05:01.473Z,37.88
2019-04-16T10:06:01.440Z,38.18
2019-04-16T10:07:01.445Z,37.76
2019-04-16T10:08:01.422Z,38.46
2019-04-16T10:09:01.410Z,39.17
2019-04-16T10:10:01.389Z,38.77
2019-04-16T10:11:05.619Z,38.16
2019-04-16T10:12:01.396Z,38.85
2019-04-16T10:13:01.359Z,38.53
2019-04-16T10:14:01.349Z,38.23
2019-04-16T10:15:01.332Z,38.04
2019-04-16T10:16:01.343Z,38.73
2019-04-16T10:17:01.370Z,38.65
2019-04-16T10:18:02.331Z,38.85
2019-04-16T10:19:01.316Z,38.33
2019-04-16T10:20:01.290Z,38.23
2019-04-16T10:21:01.271Z,38.43
2019-04-16T10:22:01.279Z,37.92
2019-04-16T10:23:01.280Z,37.52
2019-04-16T10:24:01.238Z,37.72
2019-04-16T10:25:01.241Z,38.31
2019-04-16T10:26:01.212Z,37.40
2019-04-16T10:27:04.256Z,37.81
2019-04-16T10:28:01.853Z,40.64
2019-04-16T10:29:01.193Z,39.30
2019-04-16T10:30:01.196Z,41.71
2019-04-16T10:31:01.155Z,37.06
2019-04-16T10:33:02.296Z,38.35
2019-04-16T10:34:01.121Z,37.95
2019-04-16T10:35:01.124Z,36.24
2019-04-16T10:36:04.626Z,36.44
2019-04-16T10:37:01.085Z,37.87
2019-04-16T10:38:01.109Z,37.87
2019-04-16T10:39:01.077Z,36.96
2019-04-16T10:40:01.058Z,36.86
2019-04-16T10:41:01.067Z,37.16
2019-04-16T10:42:01.072Z,36.37
2019-04-16T10:43:01.062Z,36.35
2019-04-16T10:44:01.026Z,37.87
2019-04-16T10:45:01.016Z,37.37
2019-04-16T10:46:00.996Z,37.57
2019-04-16T10:47:00.973Z,37.06
2019-04-16T10:48:01.032Z,36.24
2019-04-16T10:49:00.990Z,38.57
2019-04-16T10:50:00.965Z,37.55
2019-04-16T10:51:00.929Z,38.15
2019-04-16T10:52:00.932Z,38.13
2019-04-16T10:53:00.944Z,36.82
2019-04-16T10:54:00.962Z,36.52
2019-04-16T10:55:00.907Z,37.51
2019-04-16T10:56:00.873Z,36.51
2019-04-16T10:57:00.895Z,36.30
2019-04-16T10:58:00.880Z,37.21
2019-04-16T10:59:00.866Z,35.99
2019-04-16T11:00:00.909Z,35.99
2019-04-16T11:01:00.882Z,35.58
2019-04-16T11:02:00.826Z,36.51
2019-04-16T11:03:00.793Z,37.21
2019-04-16T11:04:00.835Z,37.21
2019-04-16T11:05:02.994Z,36.20
2019-04-16T11:06:00.790Z,36.30
2019-04-16T11:07:00.760Z,36.40
2019-04-16T11:08:00.739Z,37.21
2019-04-16T11:09:00.758Z,36.29
2019-04-16T11:10:00.720Z,35.78
2019-04-16T11:11:00.710Z,36.89
2019-04-16T11:12:04.795Z,36.79
2019-04-16T11:13:00.689Z,37.29
2019-04-16T11:14:00.766Z,36.39
2019-04-16T11:15:00.728Z,37.07
2019-04-16T11:16:00.648Z,36.37
2019-04-16T11:17:00.655Z,35.97
2019-04-16T11:18:00.626Z,35.46
2019-04-16T11:19:00.634Z,35.85
2019-04-16T11:20:00.613Z,35.65
2019-04-16T11:21:00.603Z,34.63
2019-04-16T11:22:03.895Z,34.42
2019-04-16T11:23:00.594Z,34.64
2019-04-16T11:24:00.583Z,34.74
2019-04-16T11:25:00.563Z,35.73
2019-04-16T11:26:00.534Z,34.92
2019-04-16T11:27:00.524Z,35.33
2019-04-16T11:28:00.517Z,34.83
2019-04-16T11:29:00.541Z,34.83
2019-04-16T11:30:00.490Z,36.04
2019-04-16T11:31:00.496Z,34.41
2019-04-16T11:32:00.486Z,35.01
2019-04-16T11:33:00.472Z,34.31
2019-04-16T11:34:00.479Z,35.71
2019-04-16T11:35:00.491Z,34.11
2019-04-16T11:36:00.448Z,34.00
2019-04-16T11:37:00.410Z,34.19
2019-04-16T11:38:00.404Z,34.29
2019-04-16T11:39:00.446Z,34.49
2019-04-16T11:40:00.533Z,34.19
2019-04-16T11:41:00.369Z,34.39
2019-04-16T11:42:00.365Z,34.29
2019-04-16T11:43:00.383Z,33.99
2019-04-16T11:44:14.280Z,34.19
2019-04-16T11:45:01.357Z,34.79
2019-04-16T11:46:00.311Z,34.59
2019-04-16T11:47:00.299Z,33.99
2019-04-16T11:48:00.327Z,34.17
2019-04-16T11:49:00.294Z,34.38
2019-04-16T11:50:00.308Z,33.77
2019-04-16T11:51:00.274Z,33.95
2019-04-16T11:52:00.305Z,33.27
2019-04-16T11:53:00.265Z,33.00
2019-04-16T11:54:00.249Z,34.19
2019-04-16T11:55:00.849Z,34.09
2019-04-16T11:56:00.223Z,33.87
2019-04-16T11:57:00.361Z,34.49
2019-04-16T11:58:00.176Z,33.18
2019-04-16T11:59:00.172Z,33.28
2019-04-16T12:00:07.473Z,33.00
2019-04-16T12:01:01.147Z,32.88
2019-04-16T12:02:00.214Z,32.68
2019-04-16T12:03:00.119Z,32.98
2019-04-16T12:04:00.144Z,33.27
2019-04-16T12:05:00.161Z,33.67
2019-04-16T12:06:00.128Z,34.47
2019-04-16T12:07:00.083Z,34.36
2019-04-16T12:08:00.063Z,34.14
2019-04-16T12:09:00.075Z,33.23
2019-04-16T12:10:00.058Z,31.71
2019-04-16T12:11:00.201Z,31.21
2019-04-16T12:12:00.050Z,31.71
2019-04-16T12:13:03.340Z,31.82
2019-04-16T12:14:00.021Z,31.90
2019-04-16T12:14:59.996Z,31.51
2019-04-16T12:16:00.057Z,30.61
2019-04-16T12:16:59.966Z,31.62
2019-04-16T12:17:59.999Z,30.91
2019-04-16T12:18:59.944Z,30.73
2019-04-16T12:19:59.948Z,31.03
2019-04-16T12:20:59.990Z,30.73
2019-04-16T12:22:00.020Z,32.03
2019-04-16T12:22:59.942Z,31.43
2019-04-16T12:23:59.890Z,31.33
2019-04-16T12:24:59.881Z,30.71
2019-04-16T12:25:59.901Z,31.21
2019-04-16T12:26:59.918Z,30.83
2019-04-16T12:28:01.955Z,31.53
2019-04-16T12:29:00.881Z,31.93
2019-04-16T12:29:59.826Z,31.43
2019-04-16T12:30:59.874Z,31.83
2019-04-16T12:32:03.605Z,32.03
2019-04-16T12:33:00.799Z,32.84
2019-04-16T12:33:59.813Z,32.84
2019-04-16T12:34:59.767Z,32.84
2019-04-16T12:35:59.768Z,31.92
2019-04-16T12:36:59.822Z,31.83
2019-04-16T12:37:59.745Z,32.14
2019-04-16T12:38:59.737Z,30.71
2019-04-16T12:39:59.713Z,30.81
2019-04-16T12:40:59.701Z,30.01
2019-04-16T12:42:00.353Z,30.10
2019-04-16T12:42:59.705Z,30.30
2019-04-16T12:43:59.660Z,29.38
2019-04-16T12:44:59.666Z,29.08
2019-04-16T12:45:59.664Z,29.58
2019-04-16T12:46:59.649Z,29.98
2019-04-16T12:47:59.695Z,28.56
2019-04-16T12:48:59.609Z,29.66
2019-04-16T12:49:59.652Z,28.75
2019-04-16T12:50:59.602Z,30.26
2019-04-16T12:51:59.573Z,29.16
2019-04-16T12:52:59.623Z,28.46